Skip Navigation Links
NOAA logo - Click to go to the NOAA homepage
NOAA's National Weather Service
Alaska Aviation Weather Unit
  NWS logo - Click to go to the NWS homepage
Left Navbar Graphic     02 AKDT = 10 GMT

   
NOAA is celebrating 200 years of science, service, and stewardship. Visit the NOAA 200th celebration Web site to learn more.
USA.gov is the U.S. Government's official Web portal to all Federal, state and local government Web resources and services.
Facebook
NWS on Facebook

AAWU Home :: Display TAF Add Bookmark
METAR PAHL 270456Z AUTO 36005KT 10SM CLR M09/M18 A2991 RMK AO2 SLP138
     T10941183 FZRANO=

METAR PAHL 270556Z AUTO 01005KT 10SM CLR M13/M19 A2990 RMK AO2 SLP136
     T11281194 11039 21128 56005 FZRANO=

METAR PAHL 270656Z AUTO 05005KT 10SM CLR M15/M20 A2990 RMK AO2
 SLP136 T11501200 FZRANO=

METAR PAHL 270756Z AUTO 36005KT 10SM CLR M16/M21 A2990 RMK AO2 SLP136
     T11611206 FZRANO=

METAR PAHL 270956Z AUTO 34005KT 10SM CLR M18/M21 A2990 RMK AO2 SLP135
     T11781211 FZRANO=


NOAA's National Weather Service
Alaska Aviation Weather Unit
6930 Sand Lake Road
Anchorage, AK 99502-1845
Disclaimer
Credits
Glossary
Privacy Policy
About Us
Career Opportunities
Contact AAWU Internet Services Site last modified: April, 17th 2012